sensor_id;sensor_type;location;lat;lon;timestamp;temperature;humidity
4451;DHT22;2238;50.180;9.230;2022-11-11T00:02:23;7.50;99.90
4451;DHT22;2238;50.180;9.230;2022-11-11T00:05:25;7.00;99.90
4451;DHT22;2238;50.180;9.230;2022-11-11T00:08:26;6.80;99.90
4451;DHT22;2238;50.180;9.230;2022-11-11T00:11:26;8.20;99.90
4451;DHT22;2238;50.180;9.230;2022-11-11T00:14:27;7.10;99.90
4451;DHT22;2238;50.180;9.230;2022-11-11T00:17:27;7.30;99.90
4451;DHT22;2238;50.180;9.230;2022-11-11T00:20:47;7.20;99.90
4451;DHT22;2238;50.180;9.230;2022-11-11T00:24:26;7.30;99.90
4451;DHT22;2238;50.180;9.230;2022-11-11T00:27:45;7.50;99.90
4451;DHT22;2238;50.180;9.230;2022-11-11T00:30:46;7.20;99.90
4451;DHT22;2238;50.180;9.230;2022-11-11T00:33:47;7.00;99.90
4451;DHT22;2238;50.180;9.230;2022-11-11T00:36:47;7.70;99.90
4451;DHT22;2238;50.180;9.230;2022-11-11T00:39:48;6.70;99.90
4451;DHT22;2238;50.180;9.230;2022-11-11T00:42:48;6.90;99.90
4451;DHT22;2238;50.180;9.230;2022-11-11T00:45:49;7.40;99.90
4451;DHT22;2238;50.180;9.230;2022-11-11T00:48:49;7.10;99.90
4451;DHT22;2238;50.180;9.230;2022-11-11T00:52:08;6.90;99.90
4451;DHT22;2238;50.180;9.230;2022-11-11T00:55:09;6.70;99.90
4451;DHT22;2238;50.180;9.230;2022-11-11T00:58:09;6.80;99.90
4451;DHT22;2238;50.180;9.230;2022-11-11T01:01:10;6.70;99.90
4451;DHT22;2238;50.180;9.230;2022-11-11T01:04:11;6.80;99.90
4451;DHT22;2238;50.180;9.230;2022-11-11T01:07:11;7.10;99.90
4451;DHT22;2238;50.180;9.230;2022-11-11T01:10:12;6.80;99.90
4451;DHT22;2238;50.180;9.230;2022-11-11T01:13:19;7.80;99.90
4451;DHT22;2238;50.180;9.230;2022-11-11T01:16:23;7.00;99.90
4451;DHT22;2238;50.180;9.230;2022-11-11T01:19:23;7.00;99.90
4451;DHT22;2238;50.180;9.230;2022-11-11T01:22:24;6.70;99.90
4451;DHT22;2238;50.180;9.230;2022-11-11T01:25:24;6.70;99.90
4451;DHT22;2238;50.180;9.230;2022-11-11T01:28:25;6.70;99.90
4451;DHT22;2238;50.180;9.230;2022-11-11T01:31:26;6.70;99.90
4451;DHT22;2238;50.180;9.230;2022-11-11T01:34:26;6.60;99.90
4451;DHT22;2238;50.180;9.230;2022-11-11T01:37:27;6.70;99.90
4451;DHT22;2238;50.180;9.230;2022-11-11T01:40:27;6.70;99.90
4451;DHT22;2238;50.180;9.230;2022-11-11T01:43:28;6.50;99.90
4451;DHT22;2238;50.180;9.230;2022-11-11T01:46:33;6.50;99.90
4451;DHT22;2238;50.180;9.230;2022-11-11T01:49:55;6.50;99.90
4451;DHT22;2238;50.180;9.230;2022-11-11T01:52:56;6.70;99.90
4451;DHT22;2238;50.180;9.230;2022-11-11T01:55:58;6.70;99.90
4451;DHT22;2238;50.180;9.230;2022-11-11T01:59:03;6.60;99.90
4451;DHT22;2238;50.180;9.230;2022-11-11T02:02:22;6.60;99.90
4451;DHT22;2238;50.180;9.230;2022-11-11T02:05:25;6.60;99.90
4451;DHT22;2238;50.180;9.230;2022-11-11T02:08:42;4.90;99.90
4451;DHT22;2238;50.180;9.230;2022-11-11T02:11:44;6.50;99.90
4451;DHT22;2238;50.180;9.230;2022-11-11T02:15:03;6.60;99.90
4451;DHT22;2238;50.180;9.230;2022-11-11T02:18:06;6.50;99.90
4451;DHT22;2238;50.180;9.230;2022-11-11T02:21:08;6.50;99.90
4451;DHT22;2238;50.180;9.230;2022-11-11T02:24:15;6.50;99.90
4451;DHT22;2238;50.180;9.230;2022-11-11T02:27:18;6.50;99.90
4451;DHT22;2238;50.180;9.230;2022-11-11T02:30:20;6.60;99.90
4451;DHT22;2238;50.180;9.230;2022-11-11T02:33:20;6.70;99.90
4451;DHT22;2238;50.180;9.230;2022-11-11T02:36:21;6.70;99.90
4451;DHT22;2238;50.180;9.230;2022-11-11T02:39:23;6.90;99.90
4451;DHT22;2238;50.180;9.230;2022-11-11T02:42:24;6.90;99.90
4451;DHT22;2238;50.180;9.230;2022-11-11T02:45:25;7.00;99.90
4451;DHT22;2238;50.180;9.230;2022-11-11T02:48:27;6.80;99.90
4451;DHT22;2238;50.180;9.230;2022-11-11T02:51:27;6.70;99.90
4451;DHT22;2238;50.180;9.230;2022-11-11T02:54:28;6.80;99.90
4451;DHT22;2238;50.180;9.230;2022-11-11T02:57:29;6.60;99.90
4451;DHT22;2238;50.180;9.230;2022-11-11T03:00:30;6.80;99.90
4451;DHT22;2238;50.180;9.230;2022-11-11T03:03:30;6.70;99.90
4451;DHT22;2238;50.180;9.230;2022-11-11T03:06:31;6.70;99.90
4451;DHT22;2238;50.180;9.230;2022-11-11T03:09:32;6.60;99.90
4451;DHT22;2238;50.180;9.230;2022-11-11T03:12:33;6.60;99.90
4451;DHT22;2238;50.180;9.230;2022-11-11T03:15:34;6.90;99.90
4451;DHT22;2238;50.180;9.230;2022-11-11T03:18:34;6.90;99.90
4451;DHT22;2238;50.180;9.230;2022-11-11T03:21:35;6.80;99.90
4451;DHT22;2238;50.180;9.230;2022-11-11T03:24:36;6.90;99.90
4451;DHT22;2238;50.180;9.230;2022-11-11T03:27:55;6.70;99.90
4451;DHT22;2238;50.180;9.230;2022-11-11T03:30:55;6.60;99.90
4451;DHT22;2238;50.180;9.230;2022-11-11T03:33:58;6.50;99.90
4451;DHT22;2238;50.180;9.230;2022-11-11T03:37:20;6.50;99.90
4451;DHT22;2238;50.180;9.230;2022-11-11T03:40:39;6.80;99.90
4451;DHT22;2238;50.180;9.230;2022-11-11T03:43:40;6.90;99.90
4451;DHT22;2238;50.180;9.230;2022-11-11T03:46:40;6.70;99.90
4451;DHT22;2238;50.180;9.230;2022-11-11T03:49:41;6.30;99.90
4451;DHT22;2238;50.180;9.230;2022-11-11T03:52:44;6.10;99.90
4451;DHT22;2238;50.180;9.230;2022-11-11T03:55:45;6.00;99.90
4451;DHT22;2238;50.180;9.230;2022-11-11T03:58:46;6.30;99.90
4451;DHT22;2238;50.180;9.230;2022-11-11T04:01:47;6.60;99.90
4451;DHT22;2238;50.180;9.230;2022-11-11T04:05:06;6.30;99.90
4451;DHT22;2238;50.180;9.230;2022-11-11T04:08:25;6.70;99.90
4451;DHT22;2238;50.180;9.230;2022-11-11T04:11:45;6.70;99.90
4451;DHT22;2238;50.180;9.230;2022-11-11T04:14:47;6.20;99.90
4451;DHT22;2238;50.180;9.230;2022-11-11T04:18:06;5.90;99.90
4451;DHT22;2238;50.180;9.230;2022-11-11T04:21:07;6.00;99.90
4451;DHT22;2238;50.180;9.230;2022-11-11T04:24:26;6.10;99.90
4451;DHT22;2238;50.180;9.230;2022-11-11T04:27:46;6.60;99.90
4451;DHT22;2238;50.180;9.230;2022-11-11T04:31:06;6.60;99.90
4451;DHT22;2238;50.180;9.230;2022-11-11T04:34:07;6.70;99.90
4451;DHT22;2238;50.180;9.230;2022-11-11T04:37:07;5.90;99.90
4451;DHT22;2238;50.180;9.230;2022-11-11T04:40:08;6.50;99.90
4451;DHT22;2238;50.180;9.230;2022-11-11T04:43:29;5.90;99.90
4451;DHT22;2238;50.180;9.230;2022-11-11T04:46:29;6.00;99.90
4451;DHT22;2238;50.180;9.230;2022-11-11T04:49:30;5.80;99.90
4451;DHT22;2238;50.180;9.230;2022-11-11T04:52:31;5.70;99.90
4451;DHT22;2238;50.180;9.230;2022-11-11T04:55:31;5.80;99.90
4451;DHT22;2238;50.180;9.230;2022-11-11T04:58:50;5.90;99.90
4451;DHT22;2238;50.180;9.230;2022-11-11T05:02:11;6.10;99.90
4451;DHT22;2238;50.180;9.230;2022-11-11T05:05:30;6.30;99.90
4451;DHT22;2238;50.180;9.230;2022-11-11T05:08:54;6.20;99.90
4451;DHT22;2238;50.180;9.230;2022-11-11T05:11:58;6.00;99.90
4451;DHT22;2238;50.180;9.230;2022-11-11T05:14:58;6.30;99.90
4451;DHT22;2238;50.180;9.230;2022-11-11T05:18:18;6.20;99.90
4451;DHT22;2238;50.180;9.230;2022-11-11T05:21:37;6.30;99.90
4451;DHT22;2238;50.180;9.230;2022-11-11T05:24:37;6.60;99.90
4451;DHT22;2238;50.180;9.230;2022-11-11T05:27:57;9.40;99.90
4451;DHT22;2238;50.180;9.230;2022-11-11T05:30:57;6.60;99.90
4451;DHT22;2238;50.180;9.230;2022-11-11T05:33:58;6.70;99.90
4451;DHT22;2238;50.180;9.230;2022-11-11T05:36:58;6.50;99.90
4451;DHT22;2238;50.180;9.230;2022-11-11T05:39:59;6.50;99.90
4451;DHT22;2238;50.180;9.230;2022-11-11T05:42:59;6.10;99.90
4451;DHT22;2238;50.180;9.230;2022-11-11T05:46:00;5.80;99.90
4451;DHT22;2238;50.180;9.230;2022-11-11T05:49:00;5.70;99.90
4451;DHT22;2238;50.180;9.230;2022-11-11T05:52:17;5.60;99.90
4451;DHT22;2238;50.180;9.230;2022-11-11T05:55:18;5.60;99.90
4451;DHT22;2238;50.180;9.230;2022-11-11T05:58:19;6.00;99.90
4451;DHT22;2238;50.180;9.230;2022-11-11T06:01:20;6.00;99.90
4451;DHT22;2238;50.180;9.230;2022-11-11T06:04:20;5.90;99.90
4451;DHT22;2238;50.180;9.230;2022-11-11T06:07:21;6.00;99.90
4451;DHT22;2238;50.180;9.230;2022-11-11T06:10:22;6.10;99.90
4451;DHT22;2238;50.180;9.230;2022-11-11T06:13:31;6.20;99.90
4451;DHT22;2238;50.180;9.230;2022-11-11T06:16:32;6.10;99.90
4451;DHT22;2238;50.180;9.230;2022-11-11T06:19:32;6.00;99.90
4451;DHT22;2238;50.180;9.230;2022-11-11T06:22:33;5.60;99.90
4451;DHT22;2238;50.180;9.230;2022-11-11T06:25:53;5.10;99.90
4451;DHT22;2238;50.180;9.230;2022-11-11T06:29:12;5.20;99.90
4451;DHT22;2238;50.180;9.230;2022-11-11T06:32:12;5.30;99.90
4451;DHT22;2238;50.180;9.230;2022-11-11T06:35:13;5.10;99.90
4451;DHT22;2238;50.180;9.230;2022-11-11T06:38:16;5.10;99.90
4451;DHT22;2238;50.180;9.230;2022-11-11T06:41:16;5.00;99.90
4451;DHT22;2238;50.180;9.230;2022-11-11T06:44:18;5.40;99.90
4451;DHT22;2238;50.180;9.230;2022-11-11T06:47:18;5.90;99.90
4451;DHT22;2238;50.180;9.230;2022-11-11T06:50:19;5.90;99.90
4451;DHT22;2238;50.180;9.230;2022-11-11T06:53:21;5.80;99.90
4451;DHT22;2238;50.180;9.230;2022-11-11T06:56:22;5.80;99.90
4451;DHT22;2238;50.180;9.230;2022-11-11T06:59:22;5.40;99.90
4451;DHT22;2238;50.180;9.230;2022-11-11T07:02:23;5.70;99.90
4451;DHT22;2238;50.180;9.230;2022-11-11T07:05:23;5.60;99.90
4451;DHT22;2238;50.180;9.230;2022-11-11T07:08:24;5.90;99.90
4451;DHT22;2238;50.180;9.230;2022-11-11T07:11:24;5.80;99.90
4451;DHT22;2238;50.180;9.230;2022-11-11T07:14:25;5.00;99.90
4451;DHT22;2238;50.180;9.230;2022-11-11T07:17:26;4.80;99.90
4451;DHT22;2238;50.180;9.230;2022-11-11T07:20:27;4.90;99.90
4451;DHT22;2238;50.180;9.230;2022-11-11T07:23:28;5.30;99.90
4451;DHT22;2238;50.180;9.230;2022-11-11T07:26:28;5.60;99.90
4451;DHT22;2238;50.180;9.230;2022-11-11T07:29:29;6.00;99.90
4451;DHT22;2238;50.180;9.230;2022-11-11T07:32:29;6.00;99.90
4451;DHT22;2238;50.180;9.230;2022-11-11T07:35:30;5.90;99.90
4451;DHT22;2238;50.180;9.230;2022-11-11T07:38:31;6.00;99.90
4451;DHT22;2238;50.180;9.230;2022-11-11T07:41:31;6.00;99.90
4451;DHT22;2238;50.180;9.230;2022-11-11T07:44:32;5.60;99.90
4451;DHT22;2238;50.180;9.230;2022-11-11T07:47:32;5.80;99.90
4451;DHT22;2238;50.180;9.230;2022-11-11T07:50:36;5.70;99.90
4451;DHT22;2238;50.180;9.230;2022-11-11T07:53:36;5.90;99.90
4451;DHT22;2238;50.180;9.230;2022-11-11T07:56:37;6.00;99.90
4451;DHT22;2238;50.180;9.230;2022-11-11T07:59:38;6.30;99.90
4451;DHT22;2238;50.180;9.230;2022-11-11T08:02:38;6.30;99.90
4451;DHT22;2238;50.180;9.230;2022-11-11T08:05:39;6.30;99.90
4451;DHT22;2238;50.180;9.230;2022-11-11T08:08:39;6.20;99.90
4451;DHT22;2238;50.180;9.230;2022-11-11T08:11:40;6.20;99.90
4451;DHT22;2238;50.180;9.230;2022-11-11T08:14:59;6.50;99.90
4451;DHT22;2238;50.180;9.230;2022-11-11T08:17:59;6.60;99.90
4451;DHT22;2238;50.180;9.230;2022-11-11T08:21:01;8.10;99.90
4451;DHT22;2238;50.180;9.230;2022-11-11T08:24:02;6.90;99.90
4451;DHT22;2238;50.180;9.230;2022-11-11T08:27:03;7.30;99.90
4451;DHT22;2238;50.180;9.230;2022-11-11T08:30:05;7.50;99.90
4451;DHT22;2238;50.180;9.230;2022-11-11T08:33:06;7.50;99.90
4451;DHT22;2238;50.180;9.230;2022-11-11T08:36:06;9.30;99.90
4451;DHT22;2238;50.180;9.230;2022-11-11T08:39:07;8.20;99.90
4451;DHT22;2238;50.180;9.230;2022-11-11T08:42:07;8.30;99.90
4451;DHT22;2238;50.180;9.230;2022-11-11T08:45:08;10.10;99.90
4451;DHT22;2238;50.180;9.230;2022-11-11T08:48:09;9.00;99.90
4451;DHT22;2238;50.180;9.230;2022-11-11T08:51:10;11.10;99.90
4451;DHT22;2238;50.180;9.230;2022-11-11T08:54:11;9.10;99.90
4451;DHT22;2238;50.180;9.230;2022-11-11T08:57:11;10.40;99.90
4451;DHT22;2238;50.180;9.230;2022-11-11T09:00:13;9.30;99.90
4451;DHT22;2238;50.180;9.230;2022-11-11T09:03:13;9.90;99.90
4451;DHT22;2238;50.180;9.230;2022-11-11T09:06:14;9.60;99.90
4451;DHT22;2238;50.180;9.230;2022-11-11T09:09:15;9.00;99.90
4451;DHT22;2238;50.180;9.230;2022-11-11T09:12:16;8.40;99.90
4451;DHT22;2238;50.180;9.230;2022-11-11T09:15:17;8.70;99.90
4451;DHT22;2238;50.180;9.230;2022-11-11T09:18:17;8.90;99.90
4451;DHT22;2238;50.180;9.230;2022-11-11T09:21:18;9.40;99.90
4451;DHT22;2238;50.180;9.230;2022-11-11T09:24:19;9.40;99.90
4451;DHT22;2238;50.180;9.230;2022-11-11T09:27:19;9.30;99.90
4451;DHT22;2238;50.180;9.230;2022-11-11T09:30:22;9.20;99.90
4451;DHT22;2238;50.180;9.230;2022-11-11T09:33:23;9.60;99.90
4451;DHT22;2238;50.180;9.230;2022-11-11T09:36:23;8.70;99.90
4451;DHT22;2238;50.180;9.230;2022-11-11T09:39:24;9.70;99.90
4451;DHT22;2238;50.180;9.230;2022-11-11T09:42:42;9.50;99.90
4451;DHT22;2238;50.180;9.230;2022-11-11T09:52:53;9.30;99.90
4451;DHT22;2238;50.180;9.230;2022-11-11T09:56:00;9.60;99.90
4451;DHT22;2238;50.180;9.230;2022-11-11T10:02:54;9.20;99.90
4451;DHT22;2238;50.180;9.230;2022-11-11T10:06:18;9.70;99.90
4451;DHT22;2238;50.180;9.230;2022-11-11T10:10:02;9.80;99.90
4451;DHT22;2238;50.180;9.230;2022-11-11T10:12:57;9.40;99.90
4451;DHT22;2238;50.180;9.230;2022-11-11T10:19:17;7.80;99.90
4451;DHT22;2238;50.180;9.230;2022-11-11T10:22:24;9.10;99.90
4451;DHT22;2238;50.180;9.230;2022-11-11T10:25:27;9.80;99.90
4451;DHT22;2238;50.180;9.230;2022-11-11T10:28:31;10.20;99.90
4451;DHT22;2238;50.180;9.230;2022-11-11T10:31:33;10.80;99.90
4451;DHT22;2238;50.180;9.230;2022-11-11T10:56:40;9.80;99.90
4451;DHT22;2238;50.180;9.230;2022-11-11T10:59:50;9.90;99.90
4451;DHT22;2238;50.180;9.230;2022-11-11T11:03:13;10.50;99.90
4451;DHT22;2238;50.180;9.230;2022-11-11T11:06:17;10.30;99.90
4451;DHT22;2238;50.180;9.230;2022-11-11T11:09:25;10.40;99.90
4451;DHT22;2238;50.180;9.230;2022-11-11T11:12:42;10.60;99.90
4451;DHT22;2238;50.180;9.230;2022-11-11T11:15:48;10.60;99.90
4451;DHT22;2238;50.180;9.230;2022-11-11T11:19:18;10.80;99.90
4451;DHT22;2238;50.180;9.230;2022-11-11T11:22:19;11.20;99.90
4451;DHT22;2238;50.180;9.230;2022-11-11T11:25:20;10.90;99.90
4451;DHT22;2238;50.180;9.230;2022-11-11T11:28:21;11.00;99.90
4451;DHT22;2238;50.180;9.230;2022-11-11T11:31:36;11.10;99.90
4451;DHT22;2238;50.180;9.230;2022-11-11T11:34:55;11.60;99.90
4451;DHT22;2238;50.180;9.230;2022-11-11T11:37:56;11.60;99.90
4451;DHT22;2238;50.180;9.230;2022-11-11T11:40:57;11.10;99.90
4451;DHT22;2238;50.180;9.230;2022-11-11T11:43:57;11.10;99.90
4451;DHT22;2238;50.180;9.230;2022-11-11T11:47:12;11.10;99.90
4451;DHT22;2238;50.180;9.230;2022-11-11T11:50:40;10.60;99.90
4451;DHT22;2238;50.180;9.230;2022-11-11T11:57:00;10.40;99.90
4451;DHT22;2238;50.180;9.230;2022-11-11T12:00:04;10.30;99.90
4451;DHT22;2238;50.180;9.230;2022-11-11T12:06:39;10.10;99.90
4451;DHT22;2238;50.180;9.230;2022-11-11T12:09:54;10.10;99.90
4451;DHT22;2238;50.180;9.230;2022-11-11T12:16:34;10.10;99.90
4451;DHT22;2238;50.180;9.230;2022-11-11T12:20:17;9.90;99.90
4451;DHT22;2238;50.180;9.230;2022-11-11T12:30:17;9.70;99.90
4451;DHT22;2238;50.180;9.230;2022-11-11T12:37:22;10.20;99.90
4451;DHT22;2238;50.180;9.230;2022-11-11T12:47:46;10.50;99.90
4451;DHT22;2238;50.180;9.230;2022-11-11T13:00:26;10.30;99.90
4451;DHT22;2238;50.180;9.230;2022-11-11T13:03:55;10.20;99.90
4451;DHT22;2238;50.180;9.230;2022-11-11T13:17:14;9.80;99.90
4451;DHT22;2238;50.180;9.230;2022-11-11T13:20:38;9.70;99.90
4451;DHT22;2238;50.180;9.230;2022-11-11T13:23:39;9.80;99.90
4451;DHT22;2238;50.180;9.230;2022-11-11T13:26:50;9.70;99.90
4451;DHT22;2238;50.180;9.230;2022-11-11T13:30:16;9.70;99.90
4451;DHT22;2238;50.180;9.230;2022-11-11T13:33:25;9.90;99.90
4451;DHT22;2238;50.180;9.230;2022-11-11T13:36:27;9.90;99.90
4451;DHT22;2238;50.180;9.230;2022-11-11T13:39:32;9.90;99.90
4451;DHT22;2238;50.180;9.230;2022-11-11T13:42:47;10.00;99.90
4451;DHT22;2238;50.180;9.230;2022-11-11T13:45:52;10.10;99.90
4451;DHT22;2238;50.180;9.230;2022-11-11T13:48:54;10.00;99.90
4451;DHT22;2238;50.180;9.230;2022-11-11T13:52:03;10.00;99.90
4451;DHT22;2238;50.180;9.230;2022-11-11T13:55:20;10.00;99.90
4451;DHT22;2238;50.180;9.230;2022-11-11T13:58:34;9.90;99.90
4451;DHT22;2238;50.180;9.230;2022-11-11T14:01:37;9.90;99.90
4451;DHT22;2238;50.180;9.230;2022-11-11T14:08:09;10.00;99.90
4451;DHT22;2238;50.180;9.230;2022-11-11T14:17:42;9.80;99.90
4451;DHT22;2238;50.180;9.230;2022-11-11T14:20:53;9.90;99.90
4451;DHT22;2238;50.180;9.230;2022-11-11T14:23:55;9.90;99.90
4451;DHT22;2238;50.180;9.230;2022-11-11T14:27:00;9.90;99.90
4451;DHT22;2238;50.180;9.230;2022-11-11T14:30:01;9.90;99.90
4451;DHT22;2238;50.180;9.230;2022-11-11T14:39:53;9.80;99.90
4451;DHT22;2238;50.180;9.230;2022-11-11T14:42:55;9.70;99.90
4451;DHT22;2238;50.180;9.230;2022-11-11T14:46:09;9.70;99.90
4451;DHT22;2238;50.180;9.230;2022-11-11T14:49:10;10.10;99.90
4451;DHT22;2238;50.180;9.230;2022-11-11T14:52:38;9.60;99.90
4451;DHT22;2238;50.180;9.230;2022-11-11T14:55:40;9.60;99.90
4451;DHT22;2238;50.180;9.230;2022-11-11T14:58:40;9.50;99.90
4451;DHT22;2238;50.180;9.230;2022-11-11T15:01:43;9.40;99.90
4451;DHT22;2238;50.180;9.230;2022-11-11T15:04:46;9.40;99.90
4451;DHT22;2238;50.180;9.230;2022-11-11T15:14:10;9.20;99.90
4451;DHT22;2238;50.180;9.230;2022-11-11T15:17:33;8.50;99.90
4451;DHT22;2238;50.180;9.230;2022-11-11T15:20:52;8.60;99.90
4451;DHT22;2238;50.180;9.230;2022-11-11T15:27:25;9.00;99.90
4451;DHT22;2238;50.180;9.230;2022-11-11T15:37:25;8.60;99.90
4451;DHT22;2238;50.180;9.230;2022-11-11T15:40:40;8.30;99.90
4451;DHT22;2238;50.180;9.230;2022-11-11T15:43:42;8.30;99.90
4451;DHT22;2238;50.180;9.230;2022-11-11T15:46:44;8.60;99.90
4451;DHT22;2238;50.180;9.230;2022-11-11T15:49:46;9.00;99.90
4451;DHT22;2238;50.180;9.230;2022-11-11T15:52:56;8.40;99.90
4451;DHT22;2238;50.180;9.230;2022-11-11T15:55:57;7.80;99.90
4451;DHT22;2238;50.180;9.230;2022-11-11T15:59:22;7.90;99.90
4451;DHT22;2238;50.180;9.230;2022-11-11T16:02:26;7.90;99.90
4451;DHT22;2238;50.180;9.230;2022-11-11T16:05:28;7.80;99.90
4451;DHT22;2238;50.180;9.230;2022-11-11T16:08:30;8.30;99.90
4451;DHT22;2238;50.180;9.230;2022-11-11T16:11:30;8.50;99.90
4451;DHT22;2238;50.180;9.230;2022-11-11T16:14:38;8.40;99.90
4451;DHT22;2238;50.180;9.230;2022-11-11T16:17:41;8.40;99.90
4451;DHT22;2238;50.180;9.230;2022-11-11T16:23:56;7.60;99.90
4451;DHT22;2238;50.180;9.230;2022-11-11T16:26:57;7.30;99.90
4451;DHT22;2238;50.180;9.230;2022-11-11T16:33:36;7.00;99.90
4451;DHT22;2238;50.180;9.230;2022-11-11T16:37:03;7.40;99.90
4451;DHT22;2238;50.180;9.230;2022-11-11T16:43:33;7.90;99.90
4451;DHT22;2238;50.180;9.230;2022-11-11T16:46:41;7.90;99.90
4451;DHT22;2238;50.180;9.230;2022-11-11T16:49:42;8.10;99.90
4451;DHT22;2238;50.180;9.230;2022-11-11T16:52:44;8.20;99.90
4451;DHT22;2238;50.180;9.230;2022-11-11T16:55:46;8.20;99.90
4451;DHT22;2238;50.180;9.230;2022-11-11T16:58:58;8.20;99.90
4451;DHT22;2238;50.180;9.230;2022-11-11T17:02:00;7.80;99.90
4451;DHT22;2238;50.180;9.230;2022-11-11T17:05:01;7.70;99.90
4451;DHT22;2238;50.180;9.230;2022-11-11T17:14:40;8.70;99.90
4451;DHT22;2238;50.180;9.230;2022-11-11T17:17:43;8.30;99.90
4451;DHT22;2238;50.180;9.230;2022-11-11T17:20:43;8.00;99.90
4451;DHT22;2238;50.180;9.230;2022-11-11T17:23:44;7.40;99.90
4451;DHT22;2238;50.180;9.230;2022-11-11T17:26:45;7.40;99.90
4451;DHT22;2238;50.180;9.230;2022-11-11T17:29:46;7.80;99.90
4451;DHT22;2238;50.180;9.230;2022-11-11T17:32:47;7.70;99.90
4451;DHT22;2238;50.180;9.230;2022-11-11T17:35:49;7.60;99.90
4451;DHT22;2238;50.180;9.230;2022-11-11T17:38:50;7.60;99.90
4451;DHT22;2238;50.180;9.230;2022-11-11T17:41:51;7.80;99.90
4451;DHT22;2238;50.180;9.230;2022-11-11T17:44:52;7.90;99.90
4451;DHT22;2238;50.180;9.230;2022-11-11T17:47:54;7.20;99.90
4451;DHT22;2238;50.180;9.230;2022-11-11T17:50:54;6.80;99.90
4451;DHT22;2238;50.180;9.230;2022-11-11T17:53:56;6.70;99.90
4451;DHT22;2238;50.180;9.230;2022-11-11T17:56:57;6.50;99.90
4451;DHT22;2238;50.180;9.230;2022-11-11T17:59:57;6.30;99.90
4451;DHT22;2238;50.180;9.230;2022-11-11T18:02:58;6.40;99.90
4451;DHT22;2238;50.180;9.230;2022-11-11T18:05:58;6.50;99.90
4451;DHT22;2238;50.180;9.230;2022-11-11T18:08:59;6.30;99.90
4451;DHT22;2238;50.180;9.230;2022-11-11T18:12:00;6.30;99.90
4451;DHT22;2238;50.180;9.230;2022-11-11T18:15:00;6.30;99.90
4451;DHT22;2238;50.180;9.230;2022-11-11T18:18:01;6.90;99.90
4451;DHT22;2238;50.180;9.230;2022-11-11T18:21:05;6.80;99.90
4451;DHT22;2238;50.180;9.230;2022-11-11T18:24:06;6.70;99.90
4451;DHT22;2238;50.180;9.230;2022-11-11T18:27:06;6.80;99.90
4451;DHT22;2238;50.180;9.230;2022-11-11T18:30:07;6.60;99.90
4451;DHT22;2238;50.180;9.230;2022-11-11T18:33:08;6.30;99.90
4451;DHT22;2238;50.180;9.230;2022-11-11T18:36:11;6.30;99.90
4451;DHT22;2238;50.180;9.230;2022-11-11T18:39:12;6.30;99.90
4451;DHT22;2238;50.180;9.230;2022-11-11T18:42:12;6.40;99.90
4451;DHT22;2238;50.180;9.230;2022-11-11T18:45:13;6.60;99.90
4451;DHT22;2238;50.180;9.230;2022-11-11T18:48:14;6.80;99.90
4451;DHT22;2238;50.180;9.230;2022-11-11T18:51:16;6.90;99.90
4451;DHT22;2238;50.180;9.230;2022-11-11T18:54:17;6.50;99.90
4451;DHT22;2238;50.180;9.230;2022-11-11T18:57:18;6.30;99.90
4451;DHT22;2238;50.180;9.230;2022-11-11T19:00:18;6.40;99.90
4451;DHT22;2238;50.180;9.230;2022-11-11T19:03:20;6.50;99.90
4451;DHT22;2238;50.180;9.230;2022-11-11T19:06:21;6.80;99.90
4451;DHT22;2238;50.180;9.230;2022-11-11T19:09:22;6.90;99.90
4451;DHT22;2238;50.180;9.230;2022-11-11T19:12:24;7.10;99.90
4451;DHT22;2238;50.180;9.230;2022-11-11T19:15:24;7.20;99.90
4451;DHT22;2238;50.180;9.230;2022-11-11T19:18:25;7.30;99.90
4451;DHT22;2238;50.180;9.230;2022-11-11T19:21:28;7.30;99.90
4451;DHT22;2238;50.180;9.230;2022-11-11T19:24:30;7.10;99.90
4451;DHT22;2238;50.180;9.230;2022-11-11T19:27:30;7.00;99.90
4451;DHT22;2238;50.180;9.230;2022-11-11T19:30:31;9.30;99.90
4451;DHT22;2238;50.180;9.230;2022-11-11T19:33:33;9.10;99.90
4451;DHT22;2238;50.180;9.230;2022-11-11T19:36:34;7.90;99.90
4451;DHT22;2238;50.180;9.230;2022-11-11T19:39:35;6.90;99.90
4451;DHT22;2238;50.180;9.230;2022-11-11T19:42:38;6.40;99.90
4451;DHT22;2238;50.180;9.230;2022-11-11T19:45:39;6.30;99.90
4451;DHT22;2238;50.180;9.230;2022-11-11T19:48:40;6.20;99.90
4451;DHT22;2238;50.180;9.230;2022-11-11T19:51:41;6.10;99.90
4451;DHT22;2238;50.180;9.230;2022-11-11T19:54:41;5.80;99.90
4451;DHT22;2238;50.180;9.230;2022-11-11T19:57:42;5.80;99.90
4451;DHT22;2238;50.180;9.230;2022-11-11T20:00:43;5.80;99.90
4451;DHT22;2238;50.180;9.230;2022-11-11T20:03:43;5.50;99.90
4451;DHT22;2238;50.180;9.230;2022-11-11T20:06:44;5.60;99.90
4451;DHT22;2238;50.180;9.230;2022-11-11T20:09:44;5.50;99.90
4451;DHT22;2238;50.180;9.230;2022-11-11T20:12:45;5.70;99.90
4451;DHT22;2238;50.180;9.230;2022-11-11T20:15:46;6.30;99.90
4451;DHT22;2238;50.180;9.230;2022-11-11T20:18:46;6.50;99.90
4451;DHT22;2238;50.180;9.230;2022-11-11T20:21:47;6.50;99.90
4451;DHT22;2238;50.180;9.230;2022-11-11T20:24:47;6.30;99.90
4451;DHT22;2238;50.180;9.230;2022-11-11T20:27:48;6.00;99.90
4451;DHT22;2238;50.180;9.230;2022-11-11T20:30:49;5.70;99.90
4451;DHT22;2238;50.180;9.230;2022-11-11T20:33:49;5.60;99.90
4451;DHT22;2238;50.180;9.230;2022-11-11T20:36:50;5.60;99.90
4451;DHT22;2238;50.180;9.230;2022-11-11T20:39:51;5.60;99.90
4451;DHT22;2238;50.180;9.230;2022-11-11T20:42:52;5.60;99.90
4451;DHT22;2238;50.180;9.230;2022-11-11T20:45:52;5.80;99.90
4451;DHT22;2238;50.180;9.230;2022-11-11T20:48:53;5.80;99.90
4451;DHT22;2238;50.180;9.230;2022-11-11T20:51:53;5.80;99.90
4451;DHT22;2238;50.180;9.230;2022-11-11T20:54:54;6.20;99.90
4451;DHT22;2238;50.180;9.230;2022-11-11T20:57:54;6.40;99.90
4451;DHT22;2238;50.180;9.230;2022-11-11T21:01:03;6.50;99.90
4451;DHT22;2238;50.180;9.230;2022-11-11T21:04:04;6.60;99.90
4451;DHT22;2238;50.180;9.230;2022-11-11T21:07:05;6.30;99.90
4451;DHT22;2238;50.180;9.230;2022-11-11T21:10:05;6.60;99.90
4451;DHT22;2238;50.180;9.230;2022-11-11T21:13:06;6.60;99.90
4451;DHT22;2238;50.180;9.230;2022-11-11T21:19:12;6.60;99.90
4451;DHT22;2238;50.180;9.230;2022-11-11T21:22:14;6.60;99.90
4451;DHT22;2238;50.180;9.230;2022-11-11T21:25:14;6.60;99.90
4451;DHT22;2238;50.180;9.230;2022-11-11T21:28:15;6.60;99.90
4451;DHT22;2238;50.180;9.230;2022-11-11T21:31:30;6.00;99.90
4451;DHT22;2238;50.180;9.230;2022-11-11T21:34:31;5.40;99.90
4451;DHT22;2238;50.180;9.230;2022-11-11T21:37:31;5.50;99.90
4451;DHT22;2238;50.180;9.230;2022-11-11T21:40:32;5.50;99.90
4451;DHT22;2238;50.180;9.230;2022-11-11T21:43:37;5.90;99.90
4451;DHT22;2238;50.180;9.230;2022-11-11T21:46:38;6.10;99.90
4451;DHT22;2238;50.180;9.230;2022-11-11T21:49:38;5.70;99.90
4451;DHT22;2238;50.180;9.230;2022-11-11T21:52:39;5.60;99.90
4451;DHT22;2238;50.180;9.230;2022-11-11T21:55:40;6.00;99.90
4451;DHT22;2238;50.180;9.230;2022-11-11T21:58:41;6.20;99.90
4451;DHT22;2238;50.180;9.230;2022-11-11T22:01:42;6.20;99.90
4451;DHT22;2238;50.180;9.230;2022-11-11T22:04:42;5.40;99.90
4451;DHT22;2238;50.180;9.230;2022-11-11T22:07:43;5.40;99.90
4451;DHT22;2238;50.180;9.230;2022-11-11T22:10:43;5.70;99.90
4451;DHT22;2238;50.180;9.230;2022-11-11T22:13:44;5.30;99.90
4451;DHT22;2238;50.180;9.230;2022-11-11T22:16:45;4.90;99.90
4451;DHT22;2238;50.180;9.230;2022-11-11T22:19:46;5.20;99.90
4451;DHT22;2238;50.180;9.230;2022-11-11T22:22:46;5.10;99.90
4451;DHT22;2238;50.180;9.230;2022-11-11T22:25:47;5.00;99.90
4451;DHT22;2238;50.180;9.230;2022-11-11T22:28:48;4.80;99.90
4451;DHT22;2238;50.180;9.230;2022-11-11T22:31:48;4.90;99.90
4451;DHT22;2238;50.180;9.230;2022-11-11T22:34:49;4.60;99.90
4451;DHT22;2238;50.180;9.230;2022-11-11T22:37:49;4.40;99.90
4451;DHT22;2238;50.180;9.230;2022-11-11T22:40:50;4.30;99.90